KBNO/BNO METAR and TAF weather

Enter ICAO airport designator
Station Type Date Time Source
KBNO METAR 2020/03/31 21:53 UTC NOAA

KBNO 312153Z AUTO 29017G25KT 10SM FEW034 BKN041 OVC070 05/M03 A2993 RMK AO2 PK WND 29030/2119 SLP144 T00501028


Station Type Date Time Source
KBNO Decoded METAR 2020/03/31 21:53 UTC NOAA

BURNS MUNICIPAL AIRPORT, OR, United States (KBNO) 43-36N 118-57W 1264M
Mar 31, 2020 - 05:53 PM EDT / 2020.03.31 2153 UTC
Wind: from the WNW (290 degrees) at 20 MPH (17 KT) gusting to 29 MPH (25 KT):0
Visibility: 10 mile(s):0
Sky conditions: overcast
Temperature: 41.0 F (5.0 C)
Dew Point: 27.0 F (-2.8 C)
Relative Humidity: 57%
Pressure (altimeter): 29.93 in. Hg (1013 hPa)
ob: KBNO 312153Z AUTO 29017G25KT 10SM FEW034 BKN041 OVC070 05/M03 A2993 RMK AO2 PK WND 29030/2119 SLP144 T00501028
cycle: 22

Station Type Date Time Source
KBNO TAF 2020/03/31 19:18 UTC NOAA

TAF
AMD KBNO 311917Z 3119/0118 30015G25KT P6SM -RA BKN025 OVC040
FM312200 26025G35KT P6SM VCSH SCT040 BKN080
FM010300 27010KT P6SM BKN080

Example: see airport list